Mijn Webcam Meer informatie Mijn Webcam


webcam richting noord-oost Meer informatie webcam facing north-east


Regen radar Meer informatie rain snow radar


Bezoek onze andere website:

Template documentation
and downloads

And another site



METAR rapporten vliegvelden

   
EHGG - Groningen/Eelde
Gewijzigd: 17-07-2018 11:25
Gedeeltelijk bewolkt  
Gedeeltelijk bewolkt  
   Wind: Zuiden 3.6 m/s
Wind: Zuiden 3.6 m/s
Temperatuur: 26°C
Dauwpunt: 14°C
Vochtigheid: 48%
Barometer: 1013 hPa
Bewolking: Gedeeltelijk bewolkt
Zicht: meer dan 10 km
Bewolking: Gedeeltelijk bewolkt
EHGG 170925Z AUTO 18007KT 140V220 9999 NSC 26/14 Q1013 NOSIG
EHMA - Schiermonnikoog
Gewijzigd: 17-07-2018 11:25
Gedeeltelijk bewolkt  
Gedeeltelijk bewolkt  
   Wind: Zuiden 3.1 m/s
Wind: Zuiden 3.1 m/s
Temperatuur: 23°C
Dauwpunt: 15°C
Vochtigheid: 61%
Barometer: 1013 hPa
Bewolking: Gedeeltelijk bewolkt
Zicht: meer dan 10 km
Bewolking: Gedeeltelijk bewolkt
EHMA 170925Z AUTO 19006KT 9999 NSC 23/15 Q1013 W///H///
EHMG - Terschelling
Gewijzigd: 17-07-2018 11:25
Helder  
Helder  
   Wind: ZZW 9.8 m/s
Wind: ZZW 9.8 m/s
Temperatuur: 19°C
Dauwpunt: 17°C
Vochtigheid: 88%
Barometer: 1013 hPa
Bewolking: Helder
Zicht: meer dan 10 km
Bewolking: Helder
EHMG 170925Z AUTO 21019KT 9999 NCD 19/17 Q1013 W///H///
EHVL - Vlieland
Gewijzigd: 17-07-2018 11:25
Helder  
Helder  
   Wind: ZW 10.8 m/s
Wind: ZW 10.8 m/s
Temperatuur: 21°C
Dauwpunt: 16°C
Vochtigheid: 73%
Barometer: 1012 hPa
Bewolking: Helder
Zicht: meer dan 10 km
Bewolking: Helder
EHVL 170925Z AUTO 23021KT 9999 NCD 21/16 Q1012 BLU
ETWM - Meppen, Germany
Gewijzigd: 17-07-2018 11:20
Gedeeltelijk bewolkt  
Gedeeltelijk bewolkt  
   Wind: ZZW 2.6 m/s
Wind: ZZW 2.6 m/s
Temperatuur: 27°C
Gevoelstemperatuur: 27°C
Dauwpunt: 13°C
Vochtigheid: 42%
Barometer: 1013 hPa
Bewolking: Gedeeltelijk bewolkt
Zicht: meer dan 10 km
Bewolking: Licht bewolkt 1676.4 m,
Gedeeltelijk bewolkt 3657.6 m
ETWM 170920Z 20005KT 9999 FEW055 SCT120 27/13 Q1013 BLU+
 

Script ontwikkeld door  Saratoga-weather.org Aangepast voor de template door  Weerstation Leuven

U vindt ons ook hier:

Het Weer Aktueel

UK Metoffice

European Weather Network

WeatherCloud

Weather Underground

AWEKAS

WeatherlinkIP

HAMweather, WeatherForYou, PWS Weather

  

Apparatuur in gebruik:

Weerstation
Davis VP2 Plus

Weerprogramma
Cumulus

Weercomputer
ASUS Eee Box B202

Webleverancier
Antagonist

Davis VP2 Plus

Cumulus

ASUS Eee Box B202

Antagonist